createdAt,value
2023-10-26T00:02:03.542Z,82.98
2023-10-26T00:04:33.297Z,83.18
2023-10-26T00:07:02.101Z,83.03
2023-10-26T00:09:30.471Z,83.20
2023-10-26T00:11:59.028Z,83.20
2023-10-26T00:14:27.476Z,83.28
2023-10-26T00:16:55.840Z,83.70
2023-10-26T00:19:24.291Z,83.52
2023-10-26T00:21:55.642Z,83.84
2023-10-26T00:24:24.050Z,84.05
2023-10-26T00:26:52.456Z,83.80
2023-10-26T00:29:21.130Z,83.83
2023-10-26T00:31:49.471Z,83.47
2023-10-26T00:34:17.858Z,83.54
2023-10-26T00:36:46.620Z,83.03
2023-10-26T00:39:16.363Z,83.32
2023-10-26T00:41:44.709Z,83.37
2023-10-26T00:44:13.096Z,83.23
2023-10-26T00:46:41.650Z,82.87
2023-10-26T00:49:13.557Z,83.25
2023-10-26T00:51:42.869Z,82.90
2023-10-26T00:54:11.444Z,82.68
2023-10-26T00:56:41.688Z,82.50
2023-10-26T00:59:11.679Z,82.61
2023-10-26T01:01:40.198Z,82.85
2023-10-26T01:04:08.910Z,82.80
2023-10-26T01:06:37.858Z,82.37
2023-10-26T01:09:06.447Z,82.16
2023-10-26T01:11:34.931Z,82.10
2023-10-26T01:14:04.806Z,82.23
2023-10-26T01:16:33.415Z,81.55
2023-10-26T01:19:02.202Z,81.70
2023-10-26T01:21:32.769Z,81.74
2023-10-26T01:24:01.246Z,81.84
2023-10-26T01:26:32.138Z,81.94
2023-10-26T01:29:04.668Z,82.38
2023-10-26T01:31:33.094Z,82.37
2023-10-26T01:34:01.547Z,82.92
2023-10-26T01:36:31.530Z,83.00
2023-10-26T01:39:01.463Z,83.13
2023-10-26T01:41:33.213Z,83.17
2023-10-26T01:44:02.473Z,83.50
2023-10-26T01:46:31.037Z,83.73
2023-10-26T01:49:02.166Z,83.40
2023-10-26T01:51:32.127Z,83.36
2023-10-26T01:54:00.681Z,83.50
2023-10-26T01:56:29.125Z,83.75
2023-10-26T01:58:57.501Z,83.97
2023-10-26T02:01:26.388Z,84.03
2023-10-26T02:03:54.956Z,83.88
2023-10-26T02:06:22.453Z,84.12
2023-10-26T02:08:52.311Z,84.31
2023-10-26T02:11:20.754Z,84.70
2023-10-26T02:13:49.239Z,84.66
2023-10-26T02:16:27.641Z,84.80
2023-10-26T02:18:56.055Z,84.97
2023-10-26T02:21:24.481Z,84.75
2023-10-26T02:23:54.299Z,84.79
2023-10-26T02:26:22.676Z,84.51
2023-10-26T02:28:51.024Z,84.93
2023-10-26T02:31:18.610Z,84.93
2023-10-26T02:33:46.983Z,84.91
2023-10-26T02:36:15.357Z,85.10
2023-10-26T02:38:43.764Z,85.10
2023-10-26T02:41:23.428Z,84.97
2023-10-26T02:43:51.756Z,84.99
2023-10-26T02:46:20.107Z,85.00
2023-10-26T02:48:48.545Z,85.03
2023-10-26T02:51:17.047Z,85.26
2023-10-26T02:53:45.425Z,85.22
2023-10-26T02:56:13.725Z,85.12
2023-10-26T02:58:43.482Z,85.45
2023-10-26T03:01:10.898Z,85.17
2023-10-26T03:03:39.330Z,85.55
2023-10-26T03:06:07.913Z,85.64
2023-10-26T03:08:36.325Z,85.38
2023-10-26T03:11:05.000Z,85.42
2023-10-26T03:13:33.425Z,85.20
2023-10-26T03:16:03.126Z,85.26
2023-10-26T03:18:31.546Z,85.12
2023-10-26T03:21:00.867Z,84.85
2023-10-26T03:23:29.437Z,84.71
2023-10-26T03:25:57.792Z,84.88
2023-10-26T03:28:26.121Z,85.00
2023-10-26T03:30:54.467Z,84.85
2023-10-26T03:33:23.246Z,84.78
2023-10-26T03:35:51.720Z,84.73
2023-10-26T03:38:20.297Z,84.66
2023-10-26T03:40:51.562Z,84.29
2023-10-26T03:43:20.133Z,84.70
2023-10-26T03:45:48.525Z,84.80
2023-10-26T03:48:15.994Z,84.86
2023-10-26T03:50:45.808Z,84.92
2023-10-26T03:53:14.203Z,84.87
2023-10-26T03:55:42.642Z,85.07
2023-10-26T03:58:13.089Z,84.84
2023-10-26T04:00:41.554Z,84.87
2023-10-26T04:03:10.021Z,84.88
2023-10-26T04:05:38.385Z,85.12
2023-10-26T04:08:08.521Z,85.30
2023-10-26T04:10:36.953Z,85.07
2023-10-26T04:13:05.787Z,85.01
2023-10-26T04:15:34.147Z,85.09
2023-10-26T04:18:05.453Z,84.82
2023-10-26T04:20:33.984Z,85.16
2023-10-26T04:23:02.578Z,85.01
2023-10-26T04:25:50.742Z,85.03
2023-10-26T04:28:20.573Z,85.32
2023-10-26T04:30:49.341Z,84.92
2023-10-26T04:33:19.784Z,85.13
2023-10-26T04:35:49.347Z,84.99
2023-10-26T04:38:17.746Z,85.43
2023-10-26T04:40:48.034Z,85.58
2023-10-26T04:43:16.495Z,85.49
2023-10-26T04:45:45.076Z,85.63
2023-10-26T04:48:13.579Z,85.32
2023-10-26T04:50:41.960Z,85.35
2023-10-26T04:53:11.248Z,85.51
2023-10-26T04:55:39.644Z,85.80
2023-10-26T04:58:10.166Z,86.33
2023-10-26T05:00:38.977Z,86.19
2023-10-26T05:03:11.962Z,86.05
2023-10-26T05:05:40.368Z,85.49
2023-10-26T05:08:08.754Z,85.66
2023-10-26T05:10:37.189Z,85.55
2023-10-26T05:13:05.649Z,85.44
2023-10-26T05:15:38.782Z,86.09
2023-10-26T05:18:07.361Z,85.76
2023-10-26T05:20:35.872Z,86.00
2023-10-26T05:23:04.812Z,85.96
2023-10-26T05:25:33.400Z,86.16
2023-10-26T05:28:01.827Z,85.92
2023-10-26T05:30:30.293Z,86.02
2023-10-26T05:33:00.207Z,85.71
2023-10-26T05:35:28.728Z,85.85
2023-10-26T05:37:58.163Z,85.68
2023-10-26T05:40:26.736Z,85.98
2023-10-26T05:42:55.274Z,86.07
2023-10-26T05:45:23.774Z,86.16
2023-10-26T05:47:54.974Z,86.06
2023-10-26T05:50:24.825Z,86.24
2023-10-26T05:52:53.202Z,86.72
2023-10-26T05:55:22.496Z,87.16
2023-10-26T05:57:50.917Z,87.37
2023-10-26T06:00:19.729Z,87.10
2023-10-26T06:02:48.097Z,86.80
2023-10-26T06:05:16.574Z,86.90
2023-10-26T06:07:48.222Z,86.93
2023-10-26T06:10:17.322Z,87.12
2023-10-26T06:12:45.722Z,87.15
2023-10-26T06:15:14.131Z,87.30
2023-10-26T06:17:42.597Z,87.69
2023-10-26T06:20:13.450Z,87.44
2023-10-26T06:22:42.394Z,87.85
2023-10-26T06:25:12.393Z,87.51
2023-10-26T06:27:40.784Z,87.38
2023-10-26T06:30:11.226Z,87.66
2023-10-26T06:32:39.653Z,86.85
2023-10-26T06:35:08.508Z,86.82
2023-10-26T06:37:38.734Z,86.71
2023-10-26T06:40:08.637Z,86.53
2023-10-26T06:42:38.744Z,86.77
2023-10-26T06:45:08.083Z,86.52
2023-10-26T06:47:36.514Z,86.29
2023-10-26T06:50:05.192Z,86.44
2023-10-26T06:52:33.606Z,86.35
2023-10-26T06:55:09.139Z,86.44
2023-10-26T06:57:50.269Z,86.62
2023-10-26T07:00:19.089Z,86.79
2023-10-26T07:02:49.913Z,86.78
2023-10-26T07:05:18.440Z,86.57
2023-10-26T07:07:46.843Z,86.57
2023-10-26T07:10:16.902Z,86.88
2023-10-26T07:12:45.456Z,86.81
2023-10-26T07:15:15.285Z,86.85
2023-10-26T07:17:44.674Z,86.74
2023-10-26T07:20:15.096Z,86.61
2023-10-26T07:22:44.012Z,86.62
2023-10-26T07:25:12.463Z,86.76
2023-10-26T07:27:50.900Z,86.51
2023-10-26T07:30:20.842Z,86.69
2023-10-26T07:32:49.389Z,86.63
2023-10-26T07:35:18.024Z,86.86
2023-10-26T07:37:57.932Z,86.97
2023-10-26T07:40:35.576Z,87.01
2023-10-26T07:43:14.023Z,86.85
2023-10-26T07:45:43.894Z,86.86
2023-10-26T07:48:12.539Z,87.15
2023-10-26T07:50:41.205Z,87.26
2023-10-26T07:53:10.801Z,87.38
2023-10-26T07:55:39.167Z,87.38
2023-10-26T07:58:07.568Z,87.32
2023-10-26T08:00:39.186Z,87.21
2023-10-26T08:03:09.063Z,87.12
2023-10-26T08:05:37.569Z,87.03
2023-10-26T08:08:06.308Z,87.11
2023-10-26T08:10:38.297Z,87.04
2023-10-26T08:13:06.855Z,87.00
2023-10-26T08:16:34.832Z,87.51
2023-10-26T08:18:27.265Z,87.43
2023-10-26T08:20:56.005Z,87.30
2023-10-26T08:23:24.392Z,87.35
2023-10-26T08:25:52.895Z,87.69
2023-10-26T08:28:21.367Z,87.61
2023-10-26T08:30:50.969Z,87.77
2023-10-26T08:33:19.421Z,87.69
2023-10-26T08:35:52.632Z,87.44
2023-10-26T08:38:21.164Z,87.51
2023-10-26T08:40:53.301Z,87.83
2023-10-26T08:43:23.474Z,87.69
2023-10-26T08:45:53.341Z,87.92
2023-10-26T08:48:21.821Z,87.89
2023-10-26T08:50:52.347Z,87.80
2023-10-26T08:53:20.919Z,88.30
2023-10-26T08:55:52.979Z,88.11
2023-10-26T08:58:22.523Z,88.20
2023-10-26T09:00:53.514Z,88.28
2023-10-26T09:03:23.788Z,88.11
2023-10-26T09:05:58.566Z,87.77
2023-10-26T09:08:28.637Z,87.97
2023-10-26T09:10:57.477Z,87.88
2023-10-26T09:13:26.966Z,87.61
2023-10-26T09:15:58.607Z,87.99
2023-10-26T09:18:28.641Z,88.11
2023-10-26T09:21:05.970Z,88.00
2023-10-26T09:23:35.729Z,88.05
2023-10-26T09:26:06.292Z,88.28
2023-10-26T09:28:49.937Z,89.43
2023-10-26T09:31:18.781Z,89.39
2023-10-26T09:33:48.003Z,89.00
2023-10-26T09:36:19.073Z,89.07
2023-10-26T09:38:48.759Z,89.01
2023-10-26T09:41:20.047Z,89.09
2023-10-26T09:43:49.425Z,89.84
2023-10-26T09:46:19.087Z,89.76
2023-10-26T09:48:48.098Z,89.82
2023-10-26T09:51:21.041Z,89.62
2023-10-26T09:53:50.809Z,89.64
2023-10-26T09:56:24.543Z,89.53
2023-10-26T09:58:55.070Z,89.61
2023-10-26T10:01:34.432Z,89.35
2023-10-26T10:04:03.615Z,89.38
2023-10-26T10:06:53.080Z,89.51
2023-10-26T10:09:23.565Z,89.22
2023-10-26T10:12:29.105Z,89.70
2023-10-26T10:15:22.248Z,89.55
2023-10-26T10:18:05.041Z,90.19
2023-10-26T10:20:35.548Z,90.74
2023-10-26T10:23:05.961Z,90.89
2023-10-26T10:25:58.857Z,91.27
2023-10-26T10:28:49.473Z,91.12
2023-10-26T10:31:40.978Z,91.55
2023-10-26T10:34:14.308Z,91.24
2023-10-26T10:37:11.455Z,91.07
2023-10-26T10:40:09.688Z,91.01
2023-10-26T10:42:39.226Z,90.89
2023-10-26T10:45:12.536Z,90.69
2023-10-26T10:47:41.156Z,90.76
2023-10-26T10:50:17.034Z,90.79
2023-10-26T10:52:45.820Z,90.73
2023-10-26T10:55:20.499Z,90.69
2023-10-26T10:57:59.621Z,91.04
2023-10-26T11:00:29.516Z,90.81
2023-10-26T11:03:00.881Z,90.84
2023-10-26T11:05:40.575Z,90.83
2023-10-26T11:08:10.016Z,90.99
2023-10-26T11:10:40.187Z,90.94
2023-10-26T11:13:08.865Z,90.78
2023-10-26T11:15:39.962Z,90.90
2023-10-26T11:18:10.108Z,91.15
2023-10-26T11:20:39.837Z,91.67
2023-10-26T11:23:08.854Z,91.50
2023-10-26T11:25:39.417Z,91.39
2023-10-26T11:28:08.607Z,91.72
2023-10-26T11:30:50.120Z,91.74
2023-10-26T11:33:32.026Z,91.56
2023-10-26T11:36:01.610Z,91.28
2023-10-26T11:38:30.002Z,91.17
2023-10-26T11:40:59.819Z,90.98
2023-10-26T11:43:34.817Z,91.36
2023-10-26T11:46:04.417Z,91.20
2023-10-26T11:48:34.412Z,91.09
2023-10-26T11:51:07.752Z,91.06
2023-10-26T11:53:39.861Z,91.06
2023-10-26T11:56:09.638Z,90.69
2023-10-26T11:58:38.066Z,90.37
2023-10-26T12:01:07.211Z,90.57
2023-10-26T12:03:36.967Z,90.34
2023-10-26T12:06:05.599Z,89.83
2023-10-26T12:08:34.216Z,89.36
2023-10-26T12:11:02.642Z,89.25
2023-10-26T12:13:34.472Z,88.93
2023-10-26T12:16:03.435Z,88.85
2023-10-26T12:18:31.871Z,88.42
2023-10-26T12:21:01.217Z,88.43
2023-10-26T12:23:29.679Z,87.97
2023-10-26T12:25:58.107Z,87.38
2023-10-26T12:28:30.587Z,87.17
2023-10-26T12:31:00.732Z,86.71
2023-10-26T12:33:29.853Z,86.66
2023-10-26T12:35:58.580Z,86.48
2023-10-26T12:38:26.979Z,85.91
2023-10-26T12:40:55.324Z,85.22
2023-10-26T12:43:23.695Z,85.23
2023-10-26T12:45:52.149Z,85.11
2023-10-26T12:48:21.868Z,84.86
2023-10-26T12:50:50.751Z,85.05
2023-10-26T12:53:19.208Z,84.83
2023-10-26T12:55:47.643Z,84.92
2023-10-26T12:58:16.108Z,84.82
2023-10-26T13:00:46.503Z,84.72
2023-10-26T13:03:14.949Z,84.87
2023-10-26T13:05:44.703Z,84.62
2023-10-26T13:08:13.437Z,84.72
2023-10-26T13:10:44.162Z,84.54
2023-10-26T13:13:15.457Z,84.23
2023-10-26T13:15:43.908Z,84.32
2023-10-26T13:18:12.329Z,84.38
2023-10-26T13:20:40.770Z,84.57
2023-10-26T13:23:12.438Z,84.65
2023-10-26T13:25:41.093Z,84.67
2023-10-26T13:28:09.486Z,84.94
2023-10-26T13:30:37.977Z,85.42
2023-10-26T13:33:07.870Z,85.49
2023-10-26T13:35:38.118Z,85.22
2023-10-26T13:38:13.167Z,85.57
2023-10-26T13:40:43.508Z,85.73
2023-10-26T13:43:12.028Z,85.87
2023-10-26T13:45:40.532Z,85.68
2023-10-26T13:48:09.518Z,86.07
2023-10-26T13:50:40.123Z,86.06
2023-10-26T13:53:09.107Z,86.19
2023-10-26T13:55:37.789Z,86.94
2023-10-26T13:58:08.352Z,87.41
2023-10-26T14:00:38.290Z,87.40
2023-10-26T14:03:06.840Z,87.87
2023-10-26T14:05:38.426Z,88.06
2023-10-26T14:08:06.977Z,88.08
2023-10-26T14:10:35.473Z,88.25
2023-10-26T14:13:05.221Z,88.35
2023-10-26T14:15:37.484Z,88.88
2023-10-26T14:18:06.199Z,89.21
2023-10-26T14:20:35.180Z,89.26
2023-10-26T14:23:06.063Z,89.42
2023-10-26T14:25:34.695Z,89.18
2023-10-26T14:28:03.931Z,88.87
2023-10-26T14:30:32.511Z,88.97
2023-10-26T14:33:02.460Z,88.19
2023-10-26T14:35:30.955Z,87.61
2023-10-26T14:38:02.344Z,87.55
2023-10-26T14:40:31.067Z,87.42
2023-10-26T14:42:59.508Z,87.28
2023-10-26T14:45:28.236Z,87.34
2023-10-26T14:47:58.406Z,87.42
2023-10-26T14:50:28.345Z,87.09
2023-10-26T14:52:56.804Z,87.38
2023-10-26T14:55:25.757Z,86.95
2023-10-26T14:57:54.322Z,86.95
2023-10-26T15:00:22.978Z,86.94
2023-10-26T15:02:51.406Z,87.08
2023-10-26T15:05:19.787Z,87.10
2023-10-26T15:07:49.777Z,87.55
2023-10-26T15:10:24.247Z,87.20
2023-10-26T15:12:55.381Z,87.40
2023-10-26T15:15:24.786Z,87.83
2023-10-26T15:17:54.379Z,87.82
2023-10-26T15:20:22.868Z,87.79
2023-10-26T15:22:52.660Z,87.57
2023-10-26T15:25:21.112Z,87.39
2023-10-26T15:27:49.568Z,87.37
2023-10-26T15:30:18.238Z,87.14
2023-10-26T15:32:46.728Z,86.87
2023-10-26T15:35:15.181Z,86.92
2023-10-26T15:37:43.559Z,86.49
2023-10-26T15:40:14.870Z,86.48
2023-10-26T15:42:43.452Z,86.29
2023-10-26T15:45:12.895Z,86.67
2023-10-26T15:47:41.717Z,86.36
2023-10-26T15:50:11.764Z,86.53
2023-10-26T15:52:40.276Z,86.75
2023-10-26T15:55:09.932Z,86.12
2023-10-26T15:57:49.613Z,85.84
2023-10-26T16:00:18.627Z,85.70
2023-10-26T16:02:47.718Z,85.78
2023-10-26T16:05:17.450Z,85.66
2023-10-26T16:07:45.862Z,85.83
2023-10-26T16:10:14.255Z,85.62
2023-10-26T16:12:42.815Z,85.58
2023-10-26T16:15:12.714Z,85.42
2023-10-26T16:17:41.888Z,85.60
2023-10-26T16:20:12.384Z,85.87
2023-10-26T16:22:41.024Z,85.99
2023-10-26T16:25:10.059Z,85.97
2023-10-26T16:27:38.554Z,85.99
2023-10-26T16:30:08.511Z,86.42
2023-10-26T16:32:38.787Z,86.34
2023-10-26T16:35:10.877Z,86.34
2023-10-26T16:37:39.682Z,86.53
2023-10-26T16:40:09.454Z,86.30
2023-10-26T16:42:37.872Z,86.42
2023-10-26T16:45:06.997Z,86.27
2023-10-26T16:47:44.407Z,86.25
2023-10-26T16:50:18.531Z,86.65
2023-10-26T16:52:47.184Z,86.38
2023-10-26T16:55:15.712Z,86.43
2023-10-26T16:57:44.752Z,86.76
2023-10-26T17:00:14.346Z,86.95
2023-10-26T17:02:42.903Z,86.64
2023-10-26T17:05:11.497Z,87.18
2023-10-26T17:07:42.940Z,87.26
2023-10-26T17:10:11.594Z,87.44
2023-10-26T17:12:42.301Z,87.35
2023-10-26T17:15:12.297Z,87.63
2023-10-26T17:17:40.813Z,87.72
2023-10-26T17:20:10.121Z,87.85
2023-10-26T17:22:39.188Z,87.74
2023-10-26T17:25:09.824Z,88.03
2023-10-26T17:27:38.254Z,88.09
2023-10-26T17:30:07.844Z,88.41
2023-10-26T17:32:36.790Z,88.13
2023-10-26T17:35:06.070Z,88.52
2023-10-26T17:37:34.680Z,88.45
2023-10-26T17:40:03.939Z,88.22
2023-10-26T17:42:33.804Z,88.31
2023-10-26T17:45:02.215Z,88.51
2023-10-26T17:47:30.720Z,88.60
2023-10-26T17:49:59.999Z,88.40
2023-10-26T17:52:28.502Z,88.64
2023-10-26T17:54:56.999Z,88.75
2023-10-26T17:57:25.472Z,88.88
2023-10-26T17:59:55.236Z,88.56
2023-10-26T18:02:23.615Z,88.54
2023-10-26T18:04:52.049Z,88.46
2023-10-26T18:07:20.483Z,88.39
2023-10-26T18:09:49.019Z,88.47
2023-10-26T18:12:17.578Z,88.57
2023-10-26T18:14:48.458Z,88.88
2023-10-26T18:17:18.253Z,88.69
2023-10-26T18:19:46.649Z,88.44
2023-10-26T18:22:15.186Z,88.79
2023-10-26T18:24:43.644Z,88.96
2023-10-26T18:27:12.515Z,88.80
2023-10-26T18:29:40.949Z,88.99
2023-10-26T18:32:10.048Z,89.03
2023-10-26T18:34:39.795Z,88.91
2023-10-26T18:37:08.303Z,89.18
2023-10-26T18:39:36.749Z,89.17
2023-10-26T18:42:05.911Z,89.12
2023-10-26T18:44:35.837Z,89.25
2023-10-26T18:47:08.985Z,88.98
2023-10-26T18:49:37.379Z,89.17
2023-10-26T18:52:07.880Z,89.10
2023-10-26T18:54:36.336Z,89.40
2023-10-26T18:57:05.339Z,89.27
2023-10-26T18:59:33.761Z,89.43
2023-10-26T19:02:03.518Z,89.66
2023-10-26T19:04:33.293Z,89.64
2023-10-26T19:07:03.447Z,89.95
2023-10-26T19:09:34.495Z,89.84
2023-10-26T19:12:02.921Z,89.86
2023-10-26T19:14:33.712Z,90.22
2023-10-26T19:17:02.171Z,90.37
2023-10-26T19:19:30.712Z,90.50
2023-10-26T19:21:59.248Z,90.67
2023-10-26T19:24:27.759Z,90.40
2023-10-26T19:26:57.505Z,90.48
2023-10-26T19:29:26.125Z,90.90
2023-10-26T19:31:54.560Z,91.00
2023-10-26T19:34:22.934Z,91.39
2023-10-26T19:36:51.330Z,91.01
2023-10-26T19:39:19.806Z,91.31
2023-10-26T19:41:48.269Z,90.87
2023-10-26T19:44:18.013Z,90.71
2023-10-26T19:46:46.589Z,91.01
2023-10-26T19:49:15.085Z,90.76
2023-10-26T19:51:43.627Z,90.69
2023-10-26T19:54:12.088Z,90.82
2023-10-26T19:56:40.489Z,91.15
2023-10-26T19:59:08.882Z,91.49
2023-10-26T20:01:38.856Z,91.30
2023-10-26T20:04:07.550Z,91.16
2023-10-26T20:06:36.000Z,90.90
2023-10-26T20:09:06.306Z,91.48
2023-10-26T20:11:35.086Z,91.12
2023-10-26T20:14:04.071Z,91.07
2023-10-26T20:16:34.300Z,90.93
2023-10-26T20:19:04.280Z,90.84
2023-10-26T20:21:33.072Z,90.92
2023-10-26T20:24:02.367Z,91.17
2023-10-26T20:26:30.730Z,90.91
2023-10-26T20:29:00.892Z,90.90
2023-10-26T20:31:29.499Z,90.67
2023-10-26T20:33:58.394Z,90.80
2023-10-26T20:36:28.298Z,90.61
2023-10-26T20:38:56.918Z,90.41
2023-10-26T20:41:25.337Z,90.67
2023-10-26T20:43:54.133Z,90.65
2023-10-26T20:46:22.594Z,90.67
2023-10-26T20:48:52.596Z,90.94
2023-10-26T20:51:20.997Z,91.43
2023-10-26T20:53:50.893Z,91.44
2023-10-26T20:56:19.458Z,91.58
2023-10-26T20:58:47.837Z,91.79
2023-10-26T21:01:16.418Z,91.83
2023-10-26T21:03:45.116Z,91.84
2023-10-26T21:06:14.252Z,92.04
2023-10-26T21:08:45.126Z,92.24
2023-10-26T21:11:18.756Z,92.37
2023-10-26T21:13:47.506Z,92.56
2023-10-26T21:16:16.208Z,92.67
2023-10-26T21:18:44.817Z,92.62
2023-10-26T21:21:14.050Z,92.66
2023-10-26T21:23:42.471Z,92.75
2023-10-26T21:26:12.090Z,92.96
2023-10-26T21:28:42.968Z,92.95
2023-10-26T21:31:11.494Z,93.02
2023-10-26T21:33:40.032Z,92.98
2023-10-26T21:36:10.686Z,92.80
2023-10-26T21:38:39.204Z,93.02
2023-10-26T21:41:07.881Z,92.93
2023-10-26T21:43:36.317Z,93.19
2023-10-26T21:46:07.969Z,92.76
2023-10-26T21:48:36.560Z,92.83
2023-10-26T21:51:08.124Z,92.85
2023-10-26T21:53:36.635Z,92.76
2023-10-26T21:56:05.605Z,92.90
2023-10-26T21:58:33.992Z,92.91
2023-10-26T22:01:03.149Z,92.97
2023-10-26T22:03:33.125Z,93.14
2023-10-26T22:06:01.475Z,92.95
2023-10-26T22:08:29.878Z,93.12
2023-10-26T22:10:58.337Z,93.20
2023-10-26T22:13:26.810Z,93.56
2023-10-26T22:15:55.374Z,93.68
2023-10-26T22:18:24.009Z,93.86
2023-10-26T22:20:53.965Z,93.70
2023-10-26T22:23:22.373Z,93.79
2023-10-26T22:25:58.843Z,93.74
2023-10-26T22:28:27.351Z,93.67
2023-10-26T22:30:55.713Z,93.89
2023-10-26T22:33:24.715Z,94.06
2023-10-26T22:35:54.705Z,94.39
2023-10-26T22:38:23.072Z,94.12
2023-10-26T22:40:51.475Z,94.29
2023-10-26T22:43:19.850Z,94.08
2023-10-26T22:45:48.278Z,94.26
2023-10-26T22:48:16.701Z,94.21
2023-10-26T22:50:45.394Z,94.18
2023-10-26T22:53:16.584Z,94.32
2023-10-26T22:55:45.354Z,94.09
2023-10-26T22:58:13.801Z,94.43
2023-10-26T23:00:42.794Z,94.63
2023-10-26T23:03:21.097Z,94.33
2023-10-26T23:05:49.479Z,94.38
2023-10-26T23:08:20.356Z,94.17
2023-10-26T23:10:48.675Z,94.31
2023-10-26T23:13:17.141Z,94.28
2023-10-26T23:15:45.785Z,94.20
2023-10-26T23:18:14.330Z,93.95
2023-10-26T23:20:42.718Z,94.02
2023-10-26T23:23:18.910Z,94.23
2023-10-26T23:25:47.460Z,94.22
2023-10-26T23:28:15.942Z,93.82
2023-10-26T23:30:44.340Z,93.87
2023-10-26T23:33:13.101Z,93.95
2023-10-26T23:35:43.210Z,94.10
2023-10-26T23:38:11.598Z,94.12
2023-10-26T23:40:41.338Z,93.72
2023-10-26T23:43:09.788Z,93.79
2023-10-26T23:45:38.146Z,93.61
2023-10-26T23:48:06.682Z,93.64
2023-10-26T23:50:35.076Z,93.40
2023-10-26T23:53:03.416Z,93.83
2023-10-26T23:55:31.811Z,93.79
2023-10-26T23:58:05.423Z,93.39
